createdAt,value
2022-08-17T00:00:33.246Z,18.04
2022-08-17T00:03:13.547Z,18.03
2022-08-17T00:05:47.967Z,18.02
2022-08-17T00:08:17.153Z,18.01
2022-08-17T00:10:45.817Z,18.00
2022-08-17T00:13:19.626Z,18.00
2022-08-17T00:15:46.853Z,17.99
2022-08-17T00:19:01.792Z,17.97
2022-08-17T00:21:01.798Z,17.94
2022-08-17T00:23:33.350Z,17.96
2022-08-17T00:26:01.506Z,17.95
2022-08-17T00:28:28.159Z,17.94
2022-08-17T00:31:00.803Z,17.96
2022-08-17T00:33:30.676Z,17.94
2022-08-17T00:35:59.096Z,17.91
2022-08-17T00:38:26.977Z,17.90
2022-08-17T00:40:58.980Z,17.90
2022-08-17T00:43:28.667Z,17.91
2022-08-17T00:45:55.670Z,17.85
2022-08-17T00:48:30.078Z,17.84
2022-08-17T00:51:18.758Z,17.87
2022-08-17T00:53:54.317Z,17.86
2022-08-17T00:56:32.031Z,17.86
2022-08-17T00:58:59.382Z,17.84
2022-08-17T01:01:26.442Z,17.84
2022-08-17T01:03:57.050Z,17.78
2022-08-17T01:06:28.402Z,17.77
2022-08-17T01:08:57.920Z,17.75
2022-08-17T01:11:25.647Z,17.76
2022-08-17T01:13:52.500Z,17.75
2022-08-17T01:16:25.544Z,17.76
2022-08-17T01:18:55.141Z,17.73
2022-08-17T01:21:58.917Z,17.74
2022-08-17T01:24:27.280Z,17.69
2022-08-17T01:26:53.990Z,17.67
2022-08-17T01:29:24.599Z,17.66
2022-08-17T01:31:56.566Z,17.65
2022-08-17T01:34:24.978Z,17.60
2022-08-17T01:37:04.770Z,17.58
2022-08-17T01:40:09.458Z,17.63
2022-08-17T01:43:00.175Z,17.60
2022-08-17T01:45:32.157Z,17.59
2022-08-17T01:47:58.966Z,17.58
2022-08-17T01:50:31.312Z,17.56
2022-08-17T01:53:21.316Z,17.55
2022-08-17T01:55:53.945Z,17.53
2022-08-17T01:58:21.412Z,17.42
2022-08-17T02:01:00.947Z,17.35
2022-08-17T02:03:29.642Z,17.37
2022-08-17T02:05:57.239Z,17.37
2022-08-17T02:08:37.268Z,17.35
2022-08-17T02:11:11.970Z,17.32
2022-08-17T02:13:39.288Z,17.33
2022-08-17T02:16:06.888Z,17.30
2022-08-17T02:18:34.070Z,17.30
2022-08-17T02:21:00.935Z,17.27
2022-08-17T02:23:30.356Z,17.20
2022-08-17T02:25:59.797Z,16.88
2022-08-17T02:28:28.414Z,16.89
2022-08-17T02:31:01.746Z,16.89
2022-08-17T02:33:41.485Z,16.87
2022-08-17T02:36:11.974Z,16.95
2022-08-17T02:38:39.961Z,16.90
2022-08-17T02:41:06.984Z,16.99
2022-08-17T02:43:33.850Z,17.01
2022-08-17T02:46:00.658Z,17.00
2022-08-17T02:48:31.584Z,16.99
2022-08-17T02:51:00.149Z,17.01
2022-08-17T02:53:27.446Z,17.00
2022-08-17T02:56:00.292Z,17.03
2022-08-17T02:58:35.535Z,17.05
2022-08-17T03:01:06.312Z,17.04
2022-08-17T03:03:33.604Z,17.09
2022-08-17T03:06:00.818Z,17.07
2022-08-17T03:08:27.518Z,17.09
2022-08-17T03:10:54.312Z,17.13
2022-08-17T03:13:21.139Z,17.14
2022-08-17T03:15:48.472Z,17.12
2022-08-17T03:18:25.082Z,17.11
2022-08-17T03:20:57.695Z,17.10
2022-08-17T03:23:26.363Z,17.09
2022-08-17T03:25:55.186Z,17.12
2022-08-17T03:28:23.625Z,17.11
2022-08-17T03:30:51.352Z,17.09
2022-08-17T03:33:19.054Z,17.08
2022-08-17T03:35:46.177Z,17.07
2022-08-17T03:38:15.253Z,17.08
2022-08-17T03:40:56.569Z,17.09
2022-08-17T03:43:28.061Z,17.00
2022-08-17T03:46:28.810Z,17.11
2022-08-17T03:49:18.841Z,17.19
2022-08-17T03:52:04.031Z,17.20
2022-08-17T03:54:49.427Z,17.22
2022-08-17T03:57:16.709Z,17.26
2022-08-17T03:59:46.042Z,17.28
2022-08-17T04:02:25.732Z,17.33
2022-08-17T04:04:52.684Z,17.38
2022-08-17T04:07:22.015Z,17.37
2022-08-17T04:09:51.521Z,17.24
2022-08-17T04:12:20.399Z,17.27
2022-08-17T04:14:53.540Z,17.33
2022-08-17T04:17:27.530Z,17.35
2022-08-17T04:19:55.098Z,17.38
2022-08-17T04:22:30.803Z,17.39
2022-08-17T04:25:16.121Z,17.41
2022-08-17T04:27:42.939Z,17.38
2022-08-17T04:30:10.284Z,17.36
2022-08-17T04:33:06.259Z,17.39
2022-08-17T04:35:40.307Z,17.41
2022-08-17T04:38:09.044Z,17.41
2022-08-17T04:40:54.732Z,17.43
2022-08-17T04:43:24.050Z,17.41
2022-08-17T04:45:57.145Z,17.41
2022-08-17T04:48:28.137Z,17.42
2022-08-17T04:51:09.841Z,17.46
2022-08-17T04:53:38.096Z,17.43
2022-08-17T04:56:05.410Z,17.43
2022-08-17T04:58:32.127Z,17.44
2022-08-17T05:01:01.772Z,17.46
2022-08-17T05:03:28.761Z,17.51
2022-08-17T05:05:55.540Z,17.48
2022-08-17T05:08:22.408Z,17.44
2022-08-17T05:10:49.765Z,17.44
2022-08-17T05:13:19.749Z,17.49
2022-08-17T05:15:48.677Z,17.54
2022-08-17T05:18:16.722Z,17.61
2022-08-17T05:20:43.739Z,17.61
2022-08-17T05:23:17.518Z,17.65
2022-08-17T05:25:47.772Z,17.70
2022-08-17T05:28:19.732Z,17.71
2022-08-17T05:30:52.076Z,17.74
2022-08-17T05:33:21.519Z,17.79
2022-08-17T05:35:52.120Z,17.86
2022-08-17T05:38:22.592Z,17.93
2022-08-17T05:40:49.545Z,18.00
2022-08-17T05:43:22.627Z,18.04
2022-08-17T05:45:56.465Z,18.09
2022-08-17T05:48:35.562Z,18.12
2022-08-17T05:51:23.777Z,18.16
2022-08-17T05:54:12.019Z,18.17
2022-08-17T05:56:41.570Z,18.24
2022-08-17T05:59:35.211Z,18.32
2022-08-17T06:02:43.067Z,18.41
2022-08-17T06:05:51.666Z,18.50
2022-08-17T06:08:34.056Z,18.56
2022-08-17T06:11:30.169Z,18.63
2022-08-17T06:14:29.738Z,18.66
2022-08-17T06:17:03.316Z,18.61
2022-08-17T06:20:10.571Z,18.59
2022-08-17T06:22:44.610Z,18.55
2022-08-17T06:25:23.564Z,18.58
2022-08-17T06:27:56.105Z,18.63
2022-08-17T06:30:27.053Z,18.69
2022-08-17T06:32:59.588Z,18.77
2022-08-17T06:35:56.050Z,18.82
2022-08-17T06:39:00.055Z,18.89
2022-08-17T06:41:40.068Z,19.05
2022-08-17T06:44:44.766Z,19.17
2022-08-17T06:47:28.908Z,19.39
2022-08-17T06:50:09.052Z,19.72
2022-08-17T06:52:50.011Z,19.83
2022-08-17T06:55:21.419Z,19.85
2022-08-17T06:57:52.638Z,19.86
2022-08-17T07:00:23.911Z,19.90
2022-08-17T07:03:03.057Z,19.93
2022-08-17T07:05:38.780Z,19.98
2022-08-17T07:08:16.737Z,19.90
2022-08-17T07:10:48.086Z,19.90
2022-08-17T07:13:29.464Z,20.03
2022-08-17T07:16:04.763Z,20.15
2022-08-17T07:18:33.292Z,20.17
2022-08-17T07:21:26.207Z,20.13
2022-08-17T07:24:49.246Z,20.22
2022-08-17T07:27:21.420Z,20.26
2022-08-17T07:29:54.804Z,20.28
2022-08-17T07:32:35.196Z,20.31
2022-08-17T07:35:10.705Z,20.33
2022-08-17T07:37:43.608Z,20.37
2022-08-17T07:40:27.162Z,20.40
2022-08-17T07:43:18.777Z,20.51
2022-08-17T07:46:33.812Z,20.56
2022-08-17T07:49:09.119Z,20.61
2022-08-17T07:51:43.291Z,20.66
2022-08-17T07:54:16.097Z,20.65
2022-08-17T07:56:52.729Z,20.67
2022-08-17T07:59:33.713Z,20.68
2022-08-17T08:02:02.365Z,20.77
2022-08-17T08:05:00.250Z,20.71
2022-08-17T08:07:37.420Z,20.68
2022-08-17T08:10:16.949Z,20.67
2022-08-17T08:12:47.391Z,20.67
2022-08-17T08:15:33.349Z,20.66
2022-08-17T08:18:03.924Z,20.69
2022-08-17T08:20:54.013Z,20.72
2022-08-17T08:23:39.588Z,20.81
2022-08-17T08:26:26.009Z,20.83
2022-08-17T08:29:00.455Z,20.94
2022-08-17T08:31:56.453Z,21.00
2022-08-17T08:35:01.452Z,21.16
2022-08-17T08:38:10.744Z,21.38
2022-08-17T08:41:03.558Z,21.48
2022-08-17T08:44:06.624Z,21.79
2022-08-17T08:46:48.341Z,22.00
2022-08-17T08:50:01.802Z,23.05
2022-08-17T08:52:34.108Z,23.90
2022-08-17T08:55:18.827Z,25.04
2022-08-17T08:58:00.139Z,26.44
2022-08-17T09:00:27.657Z,26.68
2022-08-17T09:03:06.250Z,27.09
2022-08-17T09:06:33.592Z,27.05
2022-08-17T09:09:34.257Z,27.66
2022-08-17T09:12:14.033Z,27.57
2022-08-17T09:14:49.424Z,27.45
2022-08-17T09:17:31.603Z,26.80
2022-08-17T09:20:06.017Z,26.39
2022-08-17T09:22:44.668Z,26.05
2022-08-17T09:25:13.957Z,26.73
2022-08-17T09:28:14.307Z,27.50
2022-08-17T09:30:51.877Z,28.24
2022-08-17T09:33:27.774Z,27.10
2022-08-17T09:36:00.075Z,26.90
2022-08-17T09:38:54.651Z,27.38
2022-08-17T09:41:26.701Z,27.10
2022-08-17T09:44:23.929Z,28.10
2022-08-17T09:47:00.406Z,28.53
2022-08-17T09:49:35.366Z,29.64
2022-08-17T09:52:21.565Z,30.21
2022-08-17T09:54:51.441Z,30.24
2022-08-17T09:57:59.019Z,30.65
2022-08-17T10:00:33.609Z,29.81
2022-08-17T10:03:19.828Z,29.07
2022-08-17T10:05:59.455Z,28.10
2022-08-17T10:09:06.516Z,28.08
2022-08-17T10:11:54.457Z,28.51
2022-08-17T10:14:53.203Z,28.59
2022-08-17T10:17:43.827Z,28.78
2022-08-17T10:20:30.186Z,29.61
2022-08-17T10:23:24.101Z,28.86
2022-08-17T10:26:04.861Z,28.92
2022-08-17T10:28:44.280Z,28.65
2022-08-17T10:31:34.434Z,29.57
2022-08-17T10:34:23.343Z,30.46
2022-08-17T10:37:09.994Z,29.45
2022-08-17T10:39:52.975Z,28.86
2022-08-17T10:42:43.846Z,28.47
2022-08-17T10:45:18.301Z,29.01
2022-08-17T10:48:08.472Z,28.71
2022-08-17T10:50:44.022Z,28.33
2022-08-17T10:53:10.726Z,28.73
2022-08-17T10:55:39.122Z,28.45
2022-08-17T10:58:37.611Z,28.30
2022-08-17T11:01:04.565Z,28.96
2022-08-17T11:03:32.871Z,29.85
2022-08-17T11:06:14.158Z,30.45
2022-08-17T11:09:02.687Z,30.00
2022-08-17T11:11:35.984Z,30.85
2022-08-17T11:14:33.965Z,31.04
2022-08-17T11:17:09.479Z,31.77
2022-08-17T11:19:48.615Z,31.98
2022-08-17T11:22:39.607Z,31.97
2022-08-17T11:25:15.500Z,31.73
2022-08-17T11:27:44.001Z,31.99
2022-08-17T11:30:35.911Z,31.85
2022-08-17T11:33:36.647Z,32.20
2022-08-17T11:36:25.714Z,32.65
2022-08-17T11:39:19.255Z,33.47
2022-08-17T11:42:11.769Z,33.53
2022-08-17T11:44:55.640Z,32.67
2022-08-17T11:48:26.058Z,32.11
2022-08-17T11:51:19.096Z,31.99
2022-08-17T11:53:45.881Z,32.88
2022-08-17T11:56:35.685Z,33.08
2022-08-17T11:59:02.512Z,32.72
2022-08-17T12:01:51.890Z,32.21
2022-08-17T12:04:21.851Z,31.29
2022-08-17T12:06:57.009Z,31.91
2022-08-17T12:09:32.114Z,33.03
2022-08-17T12:12:12.933Z,33.24
2022-08-17T12:17:41.134Z,32.54
2022-08-17T12:20:37.446Z,32.84
2022-08-17T12:23:16.644Z,33.15
2022-08-17T12:25:53.925Z,32.42
2022-08-17T12:28:35.820Z,32.57
2022-08-17T12:31:06.807Z,31.60
2022-08-17T12:33:37.117Z,32.26
2022-08-17T12:36:05.883Z,33.15
2022-08-17T12:38:35.041Z,33.13
2022-08-17T12:41:23.824Z,32.36
2022-08-17T12:44:02.011Z,31.77
2022-08-17T12:46:33.604Z,31.97
2022-08-17T12:49:21.358Z,32.31
2022-08-17T12:51:48.981Z,31.45
2022-08-17T12:54:33.647Z,30.44
2022-08-17T12:57:06.376Z,31.76
2022-08-17T12:59:33.280Z,32.24
2022-08-17T13:02:01.322Z,31.92
2022-08-17T13:04:29.815Z,32.92
2022-08-17T13:07:00.106Z,33.58
2022-08-17T13:09:33.565Z,33.47
2022-08-17T13:12:07.680Z,33.01
2022-08-17T13:14:35.224Z,32.32
2022-08-17T13:17:06.325Z,31.26
2022-08-17T13:19:40.963Z,30.99
2022-08-17T13:22:12.489Z,30.36
2022-08-17T13:24:53.172Z,30.98
2022-08-17T13:27:22.363Z,30.77
2022-08-17T13:29:57.376Z,31.15
2022-08-17T13:32:36.094Z,31.66
2022-08-17T13:35:29.742Z,32.32
2022-08-17T13:39:31.634Z,32.76
2022-08-17T13:44:39.427Z,32.16
2022-08-17T13:47:17.405Z,32.14
2022-08-17T13:49:48.755Z,32.05
2022-08-17T13:52:39.596Z,31.34
2022-08-17T13:55:19.927Z,30.90
2022-08-17T13:57:50.432Z,30.43
2022-08-17T14:00:35.522Z,30.73
2022-08-17T14:03:04.229Z,31.24
2022-08-17T14:05:32.101Z,30.62
2022-08-17T14:08:06.705Z,30.19
2022-08-17T14:10:36.615Z,30.22
2022-08-17T14:13:04.161Z,30.24
2022-08-17T14:15:56.243Z,30.18
2022-08-17T14:18:55.390Z,30.59
2022-08-17T14:21:08.272Z,31.04
2022-08-17T14:23:35.606Z,30.80
2022-08-17T14:26:02.530Z,31.24
2022-08-17T14:28:29.123Z,31.55
2022-08-17T14:30:55.864Z,31.05
2022-08-17T14:33:24.791Z,30.34
2022-08-17T14:35:54.979Z,30.08
2022-08-17T14:38:21.895Z,30.07
2022-08-17T14:40:49.436Z,30.24
2022-08-17T14:43:16.088Z,30.17
2022-08-17T14:45:43.540Z,29.81
2022-08-17T14:48:10.948Z,30.45
2022-08-17T14:50:40.943Z,30.70
2022-08-17T14:53:10.181Z,31.16
2022-08-17T14:55:39.925Z,31.56
2022-08-17T14:58:07.572Z,31.65
2022-08-17T15:00:34.960Z,31.68
2022-08-17T15:03:03.097Z,31.80
2022-08-17T15:05:33.845Z,31.98
2022-08-17T15:08:01.581Z,31.47
2022-08-17T15:10:29.333Z,31.17
2022-08-17T15:12:56.527Z,30.80
2022-08-17T15:15:23.907Z,30.28
2022-08-17T15:17:51.660Z,30.10
2022-08-17T15:20:25.117Z,30.00
2022-08-17T15:22:55.615Z,30.50
2022-08-17T15:25:23.730Z,30.56
2022-08-17T15:27:50.978Z,30.66
2022-08-17T15:30:17.754Z,30.64
2022-08-17T15:32:51.105Z,30.78
2022-08-17T15:35:27.123Z,30.52
2022-08-17T15:37:54.483Z,30.38
2022-08-17T15:40:21.329Z,30.64
2022-08-17T15:42:48.048Z,30.64
2022-08-17T15:45:16.552Z,30.31
2022-08-17T15:47:43.364Z,30.11
2022-08-17T15:50:10.625Z,29.95
2022-08-17T15:52:40.284Z,29.81
2022-08-17T15:55:11.054Z,29.78
2022-08-17T15:57:37.748Z,29.75
2022-08-17T16:00:07.605Z,29.80
2022-08-17T16:03:45.302Z,29.75
2022-08-17T16:05:25.264Z,29.90
2022-08-17T16:07:53.002Z,29.85
2022-08-17T16:10:21.171Z,29.77
2022-08-17T16:12:50.092Z,29.57
2022-08-17T16:15:18.136Z,29.31
2022-08-17T16:17:44.773Z,29.18
2022-08-17T16:20:20.195Z,29.23
2022-08-17T16:22:49.727Z,29.16
2022-08-17T16:25:38.395Z,29.08
2022-08-17T16:28:15.923Z,29.08
2022-08-17T16:30:42.829Z,29.05
2022-08-17T16:33:11.693Z,28.78
2022-08-17T16:35:39.217Z,28.85
2022-08-17T16:38:07.279Z,28.62
2022-08-17T16:40:36.086Z,28.62
2022-08-17T16:43:03.991Z,28.57
2022-08-17T16:45:40.535Z,28.61
2022-08-17T16:48:11.911Z,28.74
2022-08-17T16:50:38.918Z,28.74
2022-08-17T16:53:08.019Z,28.74
2022-08-17T16:55:35.814Z,28.77
2022-08-17T16:58:08.767Z,28.81
2022-08-17T17:00:36.682Z,28.78
2022-08-17T17:03:20.270Z,28.71
2022-08-17T17:05:59.429Z,28.74
2022-08-17T17:08:30.362Z,28.74
2022-08-17T17:10:59.522Z,28.63
2022-08-17T17:13:35.473Z,28.67
2022-08-17T17:16:05.102Z,28.54
2022-08-17T17:18:43.501Z,28.40
2022-08-17T17:21:14.438Z,28.42
2022-08-17T17:23:54.912Z,28.24
2022-08-17T17:26:40.275Z,28.10
2022-08-17T17:29:24.471Z,27.90
2022-08-17T17:32:05.686Z,27.88
2022-08-17T17:34:34.861Z,27.94
2022-08-17T17:37:08.658Z,27.91
2022-08-17T17:39:49.772Z,27.85
2022-08-17T17:42:20.715Z,27.82
2022-08-17T17:44:54.893Z,27.71
2022-08-17T17:47:21.666Z,27.67
2022-08-17T17:49:51.314Z,27.61
2022-08-17T17:52:41.097Z,27.52
2022-08-17T17:55:07.732Z,27.40
2022-08-17T17:57:58.144Z,27.34
2022-08-17T18:00:40.235Z,27.26
2022-08-17T18:03:24.667Z,27.21
2022-08-17T18:06:03.470Z,27.18
2022-08-17T18:09:17.946Z,27.11
2022-08-17T18:12:13.517Z,27.01
2022-08-17T18:15:21.527Z,26.88
2022-08-17T18:18:17.210Z,26.70
2022-08-17T18:20:53.639Z,26.63
2022-08-17T18:23:27.767Z,26.55
2022-08-17T18:25:55.645Z,26.39
2022-08-17T18:28:29.809Z,26.29
2022-08-17T18:31:22.888Z,26.14
2022-08-17T18:33:52.421Z,26.08
2022-08-17T18:36:31.447Z,25.91
2022-08-17T18:39:25.188Z,25.75
2022-08-17T18:41:54.579Z,25.62
2022-08-17T18:44:41.379Z,25.54
2022-08-17T18:47:13.487Z,25.47
2022-08-17T18:49:42.175Z,25.40
2022-08-17T18:52:11.793Z,25.30
2022-08-17T18:54:38.686Z,25.19
2022-08-17T18:57:07.614Z,25.08
2022-08-17T18:59:48.318Z,24.95
2022-08-17T19:05:26.486Z,24.74
2022-08-17T19:07:53.977Z,24.64
2022-08-17T19:10:32.173Z,24.56
2022-08-17T19:13:36.974Z,24.48
2022-08-17T19:16:12.103Z,24.42
2022-08-17T19:19:05.928Z,24.35
2022-08-17T19:21:47.934Z,24.28
2022-08-17T19:24:22.027Z,24.21
2022-08-17T19:26:58.754Z,24.13
2022-08-17T19:29:34.396Z,24.07
2022-08-17T19:32:01.950Z,23.98
2022-08-17T19:34:33.755Z,23.88
2022-08-17T19:37:03.776Z,23.83
2022-08-17T19:39:55.304Z,23.78
2022-08-17T19:42:40.543Z,23.72
2022-08-17T19:45:14.616Z,23.66
2022-08-17T19:48:09.400Z,23.55
2022-08-17T19:51:06.955Z,23.49
2022-08-17T19:54:06.031Z,23.38
2022-08-17T19:56:36.560Z,23.32
2022-08-17T19:59:23.429Z,23.28
2022-08-17T20:02:28.810Z,23.26
2022-08-17T20:05:00.188Z,23.21
2022-08-17T20:07:38.555Z,23.15
2022-08-17T20:10:11.373Z,23.12
2022-08-17T20:12:40.234Z,23.06
2022-08-17T20:15:22.903Z,23.02
2022-08-17T20:17:50.594Z,22.87
2022-08-17T20:20:43.684Z,22.88
2022-08-17T20:23:28.746Z,22.82
2022-08-17T20:26:26.981Z,22.80
2022-08-17T20:29:15.152Z,22.75
2022-08-17T20:31:46.666Z,22.71
2022-08-17T20:34:39.883Z,22.68
2022-08-17T20:37:12.662Z,22.62
2022-08-17T20:39:45.978Z,22.52
2022-08-17T20:42:15.603Z,22.48
2022-08-17T20:44:43.224Z,22.44
2022-08-17T20:47:26.940Z,22.41
2022-08-17T20:50:14.107Z,22.38
2022-08-17T20:52:55.077Z,22.35
2022-08-17T20:55:51.770Z,22.34
2022-08-17T20:58:30.891Z,22.28
2022-08-17T21:00:58.683Z,22.23
2022-08-17T21:03:26.786Z,22.20
2022-08-17T21:06:14.423Z,22.17
2022-08-17T21:08:59.039Z,22.15
2022-08-17T21:12:02.430Z,22.12
2022-08-17T21:14:33.681Z,22.06
2022-08-17T21:17:17.725Z,21.96
2022-08-17T21:20:11.497Z,21.86
2022-08-17T21:22:51.427Z,21.86
2022-08-17T21:25:50.407Z,21.83
2022-08-17T21:29:00.604Z,21.83
2022-08-17T21:31:34.188Z,21.80
2022-08-17T21:34:16.703Z,21.77
2022-08-17T21:36:45.134Z,21.72
2022-08-17T21:39:14.256Z,21.70
2022-08-17T21:41:52.802Z,21.66
2022-08-17T21:44:27.811Z,21.63
2022-08-17T21:47:13.428Z,21.55
2022-08-17T21:49:40.176Z,21.51
2022-08-17T21:52:07.746Z,21.40
2022-08-17T21:54:42.558Z,21.39
2022-08-17T21:57:17.247Z,21.37
2022-08-17T21:59:44.669Z,21.33
2022-08-17T22:02:28.384Z,21.24
2022-08-17T22:04:59.416Z,21.22
2022-08-17T22:07:40.388Z,21.19
2022-08-17T22:10:08.857Z,21.08
2022-08-17T22:12:35.486Z,21.02
2022-08-17T22:15:06.119Z,20.98
2022-08-17T22:17:36.054Z,20.91
2022-08-17T22:20:05.781Z,20.93
2022-08-17T22:22:35.321Z,20.92
2022-08-17T22:25:06.687Z,20.87
2022-08-17T22:28:10.799Z,20.87
2022-08-17T22:30:41.991Z,20.88
2022-08-17T22:33:36.991Z,20.84
2022-08-17T22:36:19.641Z,20.76
2022-08-17T22:38:50.015Z,20.78
2022-08-17T22:41:22.687Z,20.74
2022-08-17T22:43:50.642Z,20.70
2022-08-17T22:46:22.513Z,20.72
2022-08-17T22:48:53.886Z,20.70
2022-08-17T22:51:23.937Z,20.71
2022-08-17T22:54:19.276Z,20.70
2022-08-17T22:57:19.075Z,20.68
2022-08-17T22:59:54.860Z,20.61
2022-08-17T23:02:33.114Z,20.64
2022-08-17T23:05:10.132Z,20.66
2022-08-17T23:07:37.158Z,20.68
2022-08-17T23:10:06.458Z,20.70
2022-08-17T23:12:38.914Z,20.69
2022-08-17T23:15:17.005Z,20.68
2022-08-17T23:17:45.307Z,20.64
2022-08-17T23:20:14.051Z,20.64
2022-08-17T23:22:52.102Z,20.62
2022-08-17T23:25:28.829Z,20.57
2022-08-17T23:27:57.607Z,20.55
2022-08-17T23:30:25.696Z,20.52
2022-08-17T23:32:54.377Z,20.53
2022-08-17T23:35:38.853Z,20.46
2022-08-17T23:38:08.149Z,20.44
2022-08-17T23:40:34.875Z,20.42
2022-08-17T23:43:04.543Z,20.38
2022-08-17T23:45:36.695Z,20.30
2022-08-17T23:48:04.886Z,20.28
2022-08-17T23:50:31.754Z,20.12
2022-08-17T23:52:59.337Z,20.01
2022-08-17T23:55:25.992Z,20.00
2022-08-17T23:57:52.769Z,20.02
